Inicio METAR Ruta Wind Satelite

Informe Meteorológico

Fecha: 2024/06/18 20:27:54 Local
2024.06.19 01:27 UTC


Operación:MVFR
SKMZ 190100Z NIL =

SKMZ 182100Z VRB02KT 8000 SCT015 BKN060 18/15 Q1023
SKMZ 182000Z VRB02KT 8000 -DZ SCT010 SCT030 18/16 Q1024
SKMZ 181900Z 31008KT 280V340 9000 SCT012 SCT050 20/15 Q1024
SKMZ 181800Z 31006KT 280V340 9000 SCT012 20/13 Q1025
SKMZ 181700Z 29009KT 9000 SCT012 SCT070 21/15 Q1025